sensor_id;sensor_type;location;lat;lon;timestamp;temperature;humidity
17813;DHT22;9030;50.792;8.320;2024-03-22T00:00:17;7.20;99.90
17813;DHT22;9030;50.792;8.320;2024-03-22T00:02:42;7.10;99.90
17813;DHT22;9030;50.792;8.320;2024-03-22T00:05:09;7.00;99.90
17813;DHT22;9030;50.792;8.320;2024-03-22T00:07:36;7.00;99.90
17813;DHT22;9030;50.792;8.320;2024-03-22T00:10:02;7.00;99.90
17813;DHT22;9030;50.792;8.320;2024-03-22T00:12:29;6.90;99.90
17813;DHT22;9030;50.792;8.320;2024-03-22T00:14:55;6.90;99.90
17813;DHT22;9030;50.792;8.320;2024-03-22T00:17:23;6.90;99.90
17813;DHT22;9030;50.792;8.320;2024-03-22T00:19:48;6.90;99.90
17813;DHT22;9030;50.792;8.320;2024-03-22T00:22:15;6.90;99.90
17813;DHT22;9030;50.792;8.320;2024-03-22T00:24:41;6.90;99.90
17813;DHT22;9030;50.792;8.320;2024-03-22T00:27:07;6.90;99.90
17813;DHT22;9030;50.792;8.320;2024-03-22T00:29:33;6.80;99.90
17813;DHT22;9030;50.792;8.320;2024-03-22T00:32:00;6.80;99.90
17813;DHT22;9030;50.792;8.320;2024-03-22T00:34:27;6.80;99.90
17813;DHT22;9030;50.792;8.320;2024-03-22T00:36:53;6.80;99.90
17813;DHT22;9030;50.792;8.320;2024-03-22T00:39:19;6.70;99.90
17813;DHT22;9030;50.792;8.320;2024-03-22T00:41:46;6.80;99.90
17813;DHT22;9030;50.792;8.320;2024-03-22T00:44:11;6.80;99.90
17813;DHT22;9030;50.792;8.320;2024-03-22T00:46:38;6.80;99.90
17813;DHT22;9030;50.792;8.320;2024-03-22T00:49:04;6.70;99.90
17813;DHT22;9030;50.792;8.320;2024-03-22T00:51:32;6.70;99.90
17813;DHT22;9030;50.792;8.320;2024-03-22T00:53:57;6.70;99.90
17813;DHT22;9030;50.792;8.320;2024-03-22T00:56:24;6.60;99.90
17813;DHT22;9030;50.792;8.320;2024-03-22T00:58:50;6.60;99.90
17813;DHT22;9030;50.792;8.320;2024-03-22T01:01:17;6.60;99.90
17813;DHT22;9030;50.792;8.320;2024-03-22T01:03:44;6.50;99.90
17813;DHT22;9030;50.792;8.320;2024-03-22T01:06:09;6.50;99.90
17813;DHT22;9030;50.792;8.320;2024-03-22T01:08:37;6.50;99.90
17813;DHT22;9030;50.792;8.320;2024-03-22T01:11:03;6.60;99.90
17813;DHT22;9030;50.792;8.320;2024-03-22T01:13:30;6.50;99.90
17813;DHT22;9030;50.792;8.320;2024-03-22T01:15:56;6.60;99.90
17813;DHT22;9030;50.792;8.320;2024-03-22T01:18:22;6.60;99.90
17813;DHT22;9030;50.792;8.320;2024-03-22T01:20:48;6.70;99.90
17813;DHT22;9030;50.792;8.320;2024-03-22T01:23:15;6.70;99.90
17813;DHT22;9030;50.792;8.320;2024-03-22T01:25:42;6.70;99.90
17813;DHT22;9030;50.792;8.320;2024-03-22T01:28:08;6.70;99.90
17813;DHT22;9030;50.792;8.320;2024-03-22T01:30:35;6.60;99.90
17813;DHT22;9030;50.792;8.320;2024-03-22T01:33:02;6.60;99.90
17813;DHT22;9030;50.792;8.320;2024-03-22T01:35:29;6.50;99.90
17813;DHT22;9030;50.792;8.320;2024-03-22T01:37:54;6.40;99.90
17813;DHT22;9030;50.792;8.320;2024-03-22T01:40:21;6.40;99.90
17813;DHT22;9030;50.792;8.320;2024-03-22T01:42:52;6.30;99.90
17813;DHT22;9030;50.792;8.320;2024-03-22T01:45:19;6.20;99.90
17813;DHT22;9030;50.792;8.320;2024-03-22T01:47:45;6.20;99.90
17813;DHT22;9030;50.792;8.320;2024-03-22T01:50:12;6.10;99.90
17813;DHT22;9030;50.792;8.320;2024-03-22T01:52:39;6.10;99.90
17813;DHT22;9030;50.792;8.320;2024-03-22T01:55:07;6.00;99.90
17813;DHT22;9030;50.792;8.320;2024-03-22T01:57:33;6.00;99.90
17813;DHT22;9030;50.792;8.320;2024-03-22T02:00:01;6.00;99.90
17813;DHT22;9030;50.792;8.320;2024-03-22T02:02:28;6.00;99.90
17813;DHT22;9030;50.792;8.320;2024-03-22T02:04:57;6.00;99.90
17813;DHT22;9030;50.792;8.320;2024-03-22T02:07:22;6.00;99.90
17813;DHT22;9030;50.792;8.320;2024-03-22T02:09:49;6.00;99.90
17813;DHT22;9030;50.792;8.320;2024-03-22T02:12:15;6.00;99.90
17813;DHT22;9030;50.792;8.320;2024-03-22T02:14:42;5.90;99.90
17813;DHT22;9030;50.792;8.320;2024-03-22T02:17:09;5.90;99.90
17813;DHT22;9030;50.792;8.320;2024-03-22T02:19:36;5.90;99.90
17813;DHT22;9030;50.792;8.320;2024-03-22T02:22:01;5.80;99.90
17813;DHT22;9030;50.792;8.320;2024-03-22T02:24:29;5.80;99.90
17813;DHT22;9030;50.792;8.320;2024-03-22T02:26:55;5.80;99.90
17813;DHT22;9030;50.792;8.320;2024-03-22T02:29:22;5.70;99.90
17813;DHT22;9030;50.792;8.320;2024-03-22T02:31:48;5.70;99.90
17813;DHT22;9030;50.792;8.320;2024-03-22T02:34:14;5.70;99.90
17813;DHT22;9030;50.792;8.320;2024-03-22T02:36:40;5.70;99.90
17813;DHT22;9030;50.792;8.320;2024-03-22T02:39:07;5.70;99.90
17813;DHT22;9030;50.792;8.320;2024-03-22T02:41:34;5.70;99.90
17813;DHT22;9030;50.792;8.320;2024-03-22T02:44:01;5.70;99.90
17813;DHT22;9030;50.792;8.320;2024-03-22T02:46:26;5.60;99.90
17813;DHT22;9030;50.792;8.320;2024-03-22T02:48:53;5.70;99.90
17813;DHT22;9030;50.792;8.320;2024-03-22T02:51:19;5.70;99.90
17813;DHT22;9030;50.792;8.320;2024-03-22T02:53:46;5.60;99.90
17813;DHT22;9030;50.792;8.320;2024-03-22T02:56:12;5.50;99.90
17813;DHT22;9030;50.792;8.320;2024-03-22T02:58:40;5.60;99.90
17813;DHT22;9030;50.792;8.320;2024-03-22T03:01:05;5.60;99.90
17813;DHT22;9030;50.792;8.320;2024-03-22T03:03:32;5.60;99.90
17813;DHT22;9030;50.792;8.320;2024-03-22T03:05:58;5.60;99.90
17813;DHT22;9030;50.792;8.320;2024-03-22T03:08:25;5.50;99.90
17813;DHT22;9030;50.792;8.320;2024-03-22T03:10:50;5.50;99.90
17813;DHT22;9030;50.792;8.320;2024-03-22T03:13:17;5.60;99.90
17813;DHT22;9030;50.792;8.320;2024-03-22T03:15:44;5.70;99.90
17813;DHT22;9030;50.792;8.320;2024-03-22T03:18:10;5.70;99.90
17813;DHT22;9030;50.792;8.320;2024-03-22T03:20:36;5.80;99.90
17813;DHT22;9030;50.792;8.320;2024-03-22T03:23:03;5.80;99.90
17813;DHT22;9030;50.792;8.320;2024-03-22T03:25:29;5.80;99.90
17813;DHT22;9030;50.792;8.320;2024-03-22T03:27:56;5.80;99.90
17813;DHT22;9030;50.792;8.320;2024-03-22T03:30:21;5.80;99.90
17813;DHT22;9030;50.792;8.320;2024-03-22T03:32:49;5.90;99.90
17813;DHT22;9030;50.792;8.320;2024-03-22T03:35:15;5.90;99.90
17813;DHT22;9030;50.792;8.320;2024-03-22T03:37:42;6.00;99.90
17813;DHT22;9030;50.792;8.320;2024-03-22T03:40:08;6.00;99.90
17813;DHT22;9030;50.792;8.320;2024-03-22T03:42:35;6.00;99.90
17813;DHT22;9030;50.792;8.320;2024-03-22T03:45:00;5.90;99.90
17813;DHT22;9030;50.792;8.320;2024-03-22T03:47:27;6.00;99.90
17813;DHT22;9030;50.792;8.320;2024-03-22T03:49:54;5.90;99.90
17813;DHT22;9030;50.792;8.320;2024-03-22T03:52:21;5.90;99.90
17813;DHT22;9030;50.792;8.320;2024-03-22T03:54:46;5.90;99.90
17813;DHT22;9030;50.792;8.320;2024-03-22T03:57:13;6.00;99.90
17813;DHT22;9030;50.792;8.320;2024-03-22T03:59:38;6.00;99.90
17813;DHT22;9030;50.792;8.320;2024-03-22T04:02:05;6.00;99.90
17813;DHT22;9030;50.792;8.320;2024-03-22T04:04:31;6.00;99.90
17813;DHT22;9030;50.792;8.320;2024-03-22T04:06:59;5.90;99.90
17813;DHT22;9030;50.792;8.320;2024-03-22T04:09:24;5.90;99.90
17813;DHT22;9030;50.792;8.320;2024-03-22T04:11:51;5.90;99.90
17813;DHT22;9030;50.792;8.320;2024-03-22T04:14:34;5.90;99.90
17813;DHT22;9030;50.792;8.320;2024-03-22T04:17:15;5.90;99.90
17813;DHT22;9030;50.792;8.320;2024-03-22T04:19:42;5.90;99.90
17813;DHT22;9030;50.792;8.320;2024-03-22T04:22:09;6.00;99.90
17813;DHT22;9030;50.792;8.320;2024-03-22T04:24:36;6.00;99.90
17813;DHT22;9030;50.792;8.320;2024-03-22T04:27:01;6.00;99.90
17813;DHT22;9030;50.792;8.320;2024-03-22T04:29:28;6.00;99.90
17813;DHT22;9030;50.792;8.320;2024-03-22T04:31:54;6.10;99.90
17813;DHT22;9030;50.792;8.320;2024-03-22T04:34:20;6.10;99.90
17813;DHT22;9030;50.792;8.320;2024-03-22T04:36:46;6.10;99.90
17813;DHT22;9030;50.792;8.320;2024-03-22T04:39:14;6.20;99.90
17813;DHT22;9030;50.792;8.320;2024-03-22T04:41:42;6.20;99.90
17813;DHT22;9030;50.792;8.320;2024-03-22T04:44:08;6.20;99.90
17813;DHT22;9030;50.792;8.320;2024-03-22T04:46:35;6.20;99.90
17813;DHT22;9030;50.792;8.320;2024-03-22T04:49:00;6.20;99.90
17813;DHT22;9030;50.792;8.320;2024-03-22T04:51:27;6.30;99.90
17813;DHT22;9030;50.792;8.320;2024-03-22T04:53:53;6.30;99.90
17813;DHT22;9030;50.792;8.320;2024-03-22T04:56:21;6.30;99.90
17813;DHT22;9030;50.792;8.320;2024-03-22T04:58:46;6.30;99.90
17813;DHT22;9030;50.792;8.320;2024-03-22T05:01:13;6.30;99.90
17813;DHT22;9030;50.792;8.320;2024-03-22T05:03:40;6.40;99.90
17813;DHT22;9030;50.792;8.320;2024-03-22T05:06:07;6.40;99.90
17813;DHT22;9030;50.792;8.320;2024-03-22T05:08:32;6.50;99.90
17813;DHT22;9030;50.792;8.320;2024-03-22T05:10:59;6.60;99.90
17813;DHT22;9030;50.792;8.320;2024-03-22T05:13:26;6.80;99.90
17813;DHT22;9030;50.792;8.320;2024-03-22T05:15:53;6.80;99.90
17813;DHT22;9030;50.792;8.320;2024-03-22T05:18:18;6.80;99.90
17813;DHT22;9030;50.792;8.320;2024-03-22T05:20:45;6.80;99.90
17813;DHT22;9030;50.792;8.320;2024-03-22T05:23:12;6.70;99.90
17813;DHT22;9030;50.792;8.320;2024-03-22T05:25:37;6.70;99.90
17813;DHT22;9030;50.792;8.320;2024-03-22T05:28:04;6.70;99.90
17813;DHT22;9030;50.792;8.320;2024-03-22T05:30:31;6.80;99.90
17813;DHT22;9030;50.792;8.320;2024-03-22T05:32:58;6.80;99.90
17813;DHT22;9030;50.792;8.320;2024-03-22T05:35:24;6.90;99.90
17813;DHT22;9030;50.792;8.320;2024-03-22T05:37:50;7.00;99.90
17813;DHT22;9030;50.792;8.320;2024-03-22T05:40:16;7.20;99.90
17813;DHT22;9030;50.792;8.320;2024-03-22T05:42:43;7.20;99.90
17813;DHT22;9030;50.792;8.320;2024-03-22T05:45:09;7.20;99.90
17813;DHT22;9030;50.792;8.320;2024-03-22T05:47:37;7.20;99.90
17813;DHT22;9030;50.792;8.320;2024-03-22T05:50:04;7.20;99.90
17813;DHT22;9030;50.792;8.320;2024-03-22T05:52:33;7.30;99.90
17813;DHT22;9030;50.792;8.320;2024-03-22T05:54:59;7.30;99.90
17813;DHT22;9030;50.792;8.320;2024-03-22T05:57:25;7.20;99.90
17813;DHT22;9030;50.792;8.320;2024-03-22T05:59:51;7.20;99.90
17813;DHT22;9030;50.792;8.320;2024-03-22T06:02:18;7.20;99.90
17813;DHT22;9030;50.792;8.320;2024-03-22T06:04:45;7.50;99.90
17813;DHT22;9030;50.792;8.320;2024-03-22T06:07:12;7.50;99.90
17813;DHT22;9030;50.792;8.320;2024-03-22T06:09:40;7.60;99.90
17813;DHT22;9030;50.792;8.320;2024-03-22T06:12:12;7.70;99.90
17813;DHT22;9030;50.792;8.320;2024-03-22T06:14:37;7.80;99.90
17813;DHT22;9030;50.792;8.320;2024-03-22T06:17:04;7.80;99.90
17813;DHT22;9030;50.792;8.320;2024-03-22T06:19:30;7.80;99.90
17813;DHT22;9030;50.792;8.320;2024-03-22T06:21:58;7.90;99.90
17813;DHT22;9030;50.792;8.320;2024-03-22T06:24:23;7.90;99.90
17813;DHT22;9030;50.792;8.320;2024-03-22T06:26:50;7.90;99.90
17813;DHT22;9030;50.792;8.320;2024-03-22T06:29:16;8.00;99.90
17813;DHT22;9030;50.792;8.320;2024-03-22T06:31:42;8.00;99.90
17813;DHT22;9030;50.792;8.320;2024-03-22T06:34:08;8.10;99.90
17813;DHT22;9030;50.792;8.320;2024-03-22T06:36:35;8.10;99.90
17813;DHT22;9030;50.792;8.320;2024-03-22T06:39:02;8.20;99.90
17813;DHT22;9030;50.792;8.320;2024-03-22T06:41:32;8.20;99.90
17813;DHT22;9030;50.792;8.320;2024-03-22T06:43:57;8.20;99.90
17813;DHT22;9030;50.792;8.320;2024-03-22T06:46:24;8.30;99.90
17813;DHT22;9030;50.792;8.320;2024-03-22T06:48:50;8.30;99.90
17813;DHT22;9030;50.792;8.320;2024-03-22T06:51:16;8.30;99.90
17813;DHT22;9030;50.792;8.320;2024-03-22T06:53:42;8.30;99.90
17813;DHT22;9030;50.792;8.320;2024-03-22T06:56:12;8.30;99.90
17813;DHT22;9030;50.792;8.320;2024-03-22T06:58:38;8.30;99.90
17813;DHT22;9030;50.792;8.320;2024-03-22T07:01:05;8.40;99.90
17813;DHT22;9030;50.792;8.320;2024-03-22T07:03:30;8.40;99.90
17813;DHT22;9030;50.792;8.320;2024-03-22T07:05:57;8.50;99.90
17813;DHT22;9030;50.792;8.320;2024-03-22T07:08:23;8.60;99.90
17813;DHT22;9030;50.792;8.320;2024-03-22T07:10:50;8.60;99.90
17813;DHT22;9030;50.792;8.320;2024-03-22T07:13:17;8.70;99.90
17813;DHT22;9030;50.792;8.320;2024-03-22T07:15:44;8.70;99.90
17813;DHT22;9030;50.792;8.320;2024-03-22T07:18:10;8.70;99.90
17813;DHT22;9030;50.792;8.320;2024-03-22T07:20:36;8.80;99.90
17813;DHT22;9030;50.792;8.320;2024-03-22T07:23:02;8.80;99.90
17813;DHT22;9030;50.792;8.320;2024-03-22T07:25:29;8.80;99.90
17813;DHT22;9030;50.792;8.320;2024-03-22T07:27:55;8.80;99.90
17813;DHT22;9030;50.792;8.320;2024-03-22T07:30:23;8.80;99.90
17813;DHT22;9030;50.792;8.320;2024-03-22T07:32:48;8.80;99.90
17813;DHT22;9030;50.792;8.320;2024-03-22T07:35:15;8.90;99.90
17813;DHT22;9030;50.792;8.320;2024-03-22T07:37:41;9.00;99.90
17813;DHT22;9030;50.792;8.320;2024-03-22T07:40:08;9.10;99.90
17813;DHT22;9030;50.792;8.320;2024-03-22T07:42:34;9.20;99.90
17813;DHT22;9030;50.792;8.320;2024-03-22T07:45:00;9.40;99.90
17813;DHT22;9030;50.792;8.320;2024-03-22T07:47:27;9.60;99.90
17813;DHT22;9030;50.792;8.320;2024-03-22T07:49:54;9.70;99.90
17813;DHT22;9030;50.792;8.320;2024-03-22T07:52:20;9.80;99.90
17813;DHT22;9030;50.792;8.320;2024-03-22T07:54:47;10.00;99.90
17813;DHT22;9030;50.792;8.320;2024-03-22T07:57:12;10.30;99.90
17813;DHT22;9030;50.792;8.320;2024-03-22T07:59:39;10.50;99.90
17813;DHT22;9030;50.792;8.320;2024-03-22T08:02:05;10.70;99.90
17813;DHT22;9030;50.792;8.320;2024-03-22T08:04:33;10.90;99.90
17813;DHT22;9030;50.792;8.320;2024-03-22T08:06:58;11.30;99.90
17813;DHT22;9030;50.792;8.320;2024-03-22T08:09:25;11.60;99.90
17813;DHT22;9030;50.792;8.320;2024-03-22T08:11:51;11.90;99.90
17813;DHT22;9030;50.792;8.320;2024-03-22T08:14:17;12.30;99.90
17813;DHT22;9030;50.792;8.320;2024-03-22T08:16:43;12.70;99.90
17813;DHT22;9030;50.792;8.320;2024-03-22T08:19:09;13.00;99.90
17813;DHT22;9030;50.792;8.320;2024-03-22T08:21:36;13.30;99.90
17813;DHT22;9030;50.792;8.320;2024-03-22T08:24:03;13.10;99.90
17813;DHT22;9030;50.792;8.320;2024-03-22T08:26:29;13.00;99.90
17813;DHT22;9030;50.792;8.320;2024-03-22T08:28:56;13.00;99.90
17813;DHT22;9030;50.792;8.320;2024-03-22T08:31:21;13.10;99.90
17813;DHT22;9030;50.792;8.320;2024-03-22T08:33:51;13.30;99.90
17813;DHT22;9030;50.792;8.320;2024-03-22T08:36:17;13.20;99.90
17813;DHT22;9030;50.792;8.320;2024-03-22T08:38:44;13.60;99.90
17813;DHT22;9030;50.792;8.320;2024-03-22T08:41:11;14.10;99.90
17813;DHT22;9030;50.792;8.320;2024-03-22T08:43:37;14.60;99.90
17813;DHT22;9030;50.792;8.320;2024-03-22T08:46:03;14.90;99.90
17813;DHT22;9030;50.792;8.320;2024-03-22T08:48:30;14.70;99.90
17813;DHT22;9030;50.792;8.320;2024-03-22T08:50:55;14.30;99.90
17813;DHT22;9030;50.792;8.320;2024-03-22T08:53:22;14.30;99.90
17813;DHT22;9030;50.792;8.320;2024-03-22T08:55:49;14.50;99.90
17813;DHT22;9030;50.792;8.320;2024-03-22T08:58:15;14.80;99.90
17813;DHT22;9030;50.792;8.320;2024-03-22T09:00:43;15.00;99.90
17813;DHT22;9030;50.792;8.320;2024-03-22T09:03:09;15.10;99.90
17813;DHT22;9030;50.792;8.320;2024-03-22T09:05:35;15.10;99.90
17813;DHT22;9030;50.792;8.320;2024-03-22T09:08:02;14.90;99.90
17813;DHT22;9030;50.792;8.320;2024-03-22T09:10:29;14.70;99.90
17813;DHT22;9030;50.792;8.320;2024-03-22T09:12:57;14.40;99.90
17813;DHT22;9030;50.792;8.320;2024-03-22T09:15:22;14.50;99.90
17813;DHT22;9030;50.792;8.320;2024-03-22T09:17:51;14.70;99.90
17813;DHT22;9030;50.792;8.320;2024-03-22T09:20:16;14.90;99.90
17813;DHT22;9030;50.792;8.320;2024-03-22T09:22:43;15.10;99.90
17813;DHT22;9030;50.792;8.320;2024-03-22T09:25:09;15.30;99.90
17813;DHT22;9030;50.792;8.320;2024-03-22T09:27:35;15.40;99.90
17813;DHT22;9030;50.792;8.320;2024-03-22T09:30:02;15.30;99.90
17813;DHT22;9030;50.792;8.320;2024-03-22T09:32:29;15.20;99.90
17813;DHT22;9030;50.792;8.320;2024-03-22T09:34:55;15.20;99.90
17813;DHT22;9030;50.792;8.320;2024-03-22T09:37:21;15.50;99.90
17813;DHT22;9030;50.792;8.320;2024-03-22T09:39:47;15.90;99.90
17813;DHT22;9030;50.792;8.320;2024-03-22T09:42:16;15.90;99.90
17813;DHT22;9030;50.792;8.320;2024-03-22T09:44:46;16.10;99.90
17813;DHT22;9030;50.792;8.320;2024-03-22T09:47:16;16.00;99.90
17813;DHT22;9030;50.792;8.320;2024-03-22T09:49:42;16.10;99.90
17813;DHT22;9030;50.792;8.320;2024-03-22T09:52:12;16.10;99.90
17813;DHT22;9030;50.792;8.320;2024-03-22T09:54:38;16.10;99.90
17813;DHT22;9030;50.792;8.320;2024-03-22T09:57:05;15.90;99.90
17813;DHT22;9030;50.792;8.320;2024-03-22T09:59:32;15.80;99.90
17813;DHT22;9030;50.792;8.320;2024-03-22T10:01:59;15.50;99.90
17813;DHT22;9030;50.792;8.320;2024-03-22T10:04:27;15.50;99.90
17813;DHT22;9030;50.792;8.320;2024-03-22T10:06:54;15.30;99.90
17813;DHT22;9030;50.792;8.320;2024-03-22T10:09:28;15.60;99.90
17813;DHT22;9030;50.792;8.320;2024-03-22T10:11:55;16.00;99.90
17813;DHT22;9030;50.792;8.320;2024-03-22T10:14:21;15.90;99.90
17813;DHT22;9030;50.792;8.320;2024-03-22T10:16:47;16.00;99.90
17813;DHT22;9030;50.792;8.320;2024-03-22T10:19:13;16.30;99.90
17813;DHT22;9030;50.792;8.320;2024-03-22T10:21:41;16.30;99.90
17813;DHT22;9030;50.792;8.320;2024-03-22T10:24:07;16.10;99.90
17813;DHT22;9030;50.792;8.320;2024-03-22T10:26:34;15.80;99.90
17813;DHT22;9030;50.792;8.320;2024-03-22T10:28:59;15.40;99.90
17813;DHT22;9030;50.792;8.320;2024-03-22T10:31:26;15.40;99.90
17813;DHT22;9030;50.792;8.320;2024-03-22T10:33:53;15.50;99.90
17813;DHT22;9030;50.792;8.320;2024-03-22T10:36:20;15.50;99.90
17813;DHT22;9030;50.792;8.320;2024-03-22T10:38:49;15.50;99.90
17813;DHT22;9030;50.792;8.320;2024-03-22T10:41:17;15.40;99.90
17813;DHT22;9030;50.792;8.320;2024-03-22T10:43:42;15.30;99.90
17813;DHT22;9030;50.792;8.320;2024-03-22T10:46:09;15.40;99.90
17813;DHT22;9030;50.792;8.320;2024-03-22T10:48:35;15.60;99.90
17813;DHT22;9030;50.792;8.320;2024-03-22T10:51:03;15.40;99.90
17813;DHT22;9030;50.792;8.320;2024-03-22T10:53:31;15.40;99.90
17813;DHT22;9030;50.792;8.320;2024-03-22T10:56:00;15.60;99.90
17813;DHT22;9030;50.792;8.320;2024-03-22T10:58:26;15.60;99.90
17813;DHT22;9030;50.792;8.320;2024-03-22T11:00:54;15.20;99.90
17813;DHT22;9030;50.792;8.320;2024-03-22T11:03:21;15.10;99.90
17813;DHT22;9030;50.792;8.320;2024-03-22T11:05:49;15.10;99.90
17813;DHT22;9030;50.792;8.320;2024-03-22T11:08:23;15.30;99.90
17813;DHT22;9030;50.792;8.320;2024-03-22T11:10:50;15.30;99.90
17813;DHT22;9030;50.792;8.320;2024-03-22T11:13:17;15.40;99.90
17813;DHT22;9030;50.792;8.320;2024-03-22T11:15:47;15.50;99.90
17813;DHT22;9030;50.792;8.320;2024-03-22T11:18:13;15.50;99.90
17813;DHT22;9030;50.792;8.320;2024-03-22T11:20:41;15.70;99.90
17813;DHT22;9030;50.792;8.320;2024-03-22T11:23:07;15.80;99.90
17813;DHT22;9030;50.792;8.320;2024-03-22T11:25:35;15.80;99.90
17813;DHT22;9030;50.792;8.320;2024-03-22T11:28:01;15.70;99.90
17813;DHT22;9030;50.792;8.320;2024-03-22T11:30:29;15.50;99.90
17813;DHT22;9030;50.792;8.320;2024-03-22T11:32:56;15.30;99.90
17813;DHT22;9030;50.792;8.320;2024-03-22T11:35:23;15.30;99.90
17813;DHT22;9030;50.792;8.320;2024-03-22T11:37:50;15.40;99.90
17813;DHT22;9030;50.792;8.320;2024-03-22T11:40:17;15.20;99.90
17813;DHT22;9030;50.792;8.320;2024-03-22T11:42:44;15.10;99.90
17813;DHT22;9030;50.792;8.320;2024-03-22T11:45:15;15.30;99.90
17813;DHT22;9030;50.792;8.320;2024-03-22T11:47:42;15.30;99.90
17813;DHT22;9030;50.792;8.320;2024-03-22T11:50:11;15.40;99.90
17813;DHT22;9030;50.792;8.320;2024-03-22T11:52:40;15.40;99.90
17813;DHT22;9030;50.792;8.320;2024-03-22T11:55:07;15.70;99.90
17813;DHT22;9030;50.792;8.320;2024-03-22T11:57:33;15.60;99.90
17813;DHT22;9030;50.792;8.320;2024-03-22T12:00:00;15.60;99.90
17813;DHT22;9030;50.792;8.320;2024-03-22T12:02:26;15.60;99.90
17813;DHT22;9030;50.792;8.320;2024-03-22T12:04:54;15.50;99.90
17813;DHT22;9030;50.792;8.320;2024-03-22T12:07:21;15.30;99.90
17813;DHT22;9030;50.792;8.320;2024-03-22T12:09:47;15.00;99.90
17813;DHT22;9030;50.792;8.320;2024-03-22T12:12:13;15.00;99.90
17813;DHT22;9030;50.792;8.320;2024-03-22T12:14:39;15.00;99.90
17813;DHT22;9030;50.792;8.320;2024-03-22T12:17:06;15.00;99.90
17813;DHT22;9030;50.792;8.320;2024-03-22T12:19:33;14.90;99.90
17813;DHT22;9030;50.792;8.320;2024-03-22T12:22:01;14.90;99.90
17813;DHT22;9030;50.792;8.320;2024-03-22T12:24:27;15.00;99.90
17813;DHT22;9030;50.792;8.320;2024-03-22T12:26:53;15.10;99.90
17813;DHT22;9030;50.792;8.320;2024-03-22T12:29:20;15.00;99.90
17813;DHT22;9030;50.792;8.320;2024-03-22T12:31:47;15.00;99.90
17813;DHT22;9030;50.792;8.320;2024-03-22T12:34:12;15.10;99.90
17813;DHT22;9030;50.792;8.320;2024-03-22T12:36:40;15.10;99.90
17813;DHT22;9030;50.792;8.320;2024-03-22T12:39:07;15.20;99.90
17813;DHT22;9030;50.792;8.320;2024-03-22T12:41:34;15.20;99.90
17813;DHT22;9030;50.792;8.320;2024-03-22T12:44:00;15.40;99.90
17813;DHT22;9030;50.792;8.320;2024-03-22T12:46:26;15.50;99.90
17813;DHT22;9030;50.792;8.320;2024-03-22T12:48:52;15.60;99.90
17813;DHT22;9030;50.792;8.320;2024-03-22T12:51:19;15.60;99.90
17813;DHT22;9030;50.792;8.320;2024-03-22T12:53:46;15.40;99.90
17813;DHT22;9030;50.792;8.320;2024-03-22T12:56:14;15.40;99.90
17813;DHT22;9030;50.792;8.320;2024-03-22T12:58:40;15.30;99.90
17813;DHT22;9030;50.792;8.320;2024-03-22T13:01:08;15.20;99.90
17813;DHT22;9030;50.792;8.320;2024-03-22T13:03:36;15.20;99.90
17813;DHT22;9030;50.792;8.320;2024-03-22T13:06:03;15.30;99.90
17813;DHT22;9030;50.792;8.320;2024-03-22T13:08:30;15.20;99.90
17813;DHT22;9030;50.792;8.320;2024-03-22T13:10:57;15.20;99.90
17813;DHT22;9030;50.792;8.320;2024-03-22T13:13:24;15.30;99.90
17813;DHT22;9030;50.792;8.320;2024-03-22T13:15:50;15.50;99.90
17813;DHT22;9030;50.792;8.320;2024-03-22T13:18:16;15.40;99.90
17813;DHT22;9030;50.792;8.320;2024-03-22T13:20:43;15.40;99.90
17813;DHT22;9030;50.792;8.320;2024-03-22T13:23:08;15.50;99.90
17813;DHT22;9030;50.792;8.320;2024-03-22T13:25:37;15.40;99.90
17813;DHT22;9030;50.792;8.320;2024-03-22T13:28:03;15.50;99.90
17813;DHT22;9030;50.792;8.320;2024-03-22T13:30:31;15.50;99.90
17813;DHT22;9030;50.792;8.320;2024-03-22T13:32:57;15.50;99.90
17813;DHT22;9030;50.792;8.320;2024-03-22T13:35:24;15.50;99.90
17813;DHT22;9030;50.792;8.320;2024-03-22T13:37:50;15.40;99.90
17813;DHT22;9030;50.792;8.320;2024-03-22T13:40:16;15.50;99.90
17813;DHT22;9030;50.792;8.320;2024-03-22T13:42:42;15.50;99.90
17813;DHT22;9030;50.792;8.320;2024-03-22T13:45:09;15.40;99.90
17813;DHT22;9030;50.792;8.320;2024-03-22T13:47:36;15.40;99.90
17813;DHT22;9030;50.792;8.320;2024-03-22T13:50:06;15.40;99.90
17813;DHT22;9030;50.792;8.320;2024-03-22T13:52:34;15.40;99.90
17813;DHT22;9030;50.792;8.320;2024-03-22T13:55:00;15.50;99.90
17813;DHT22;9030;50.792;8.320;2024-03-22T13:57:26;15.60;99.90
17813;DHT22;9030;50.792;8.320;2024-03-22T13:59:53;15.70;99.90
17813;DHT22;9030;50.792;8.320;2024-03-22T14:02:19;15.70;99.90
17813;DHT22;9030;50.792;8.320;2024-03-22T14:04:47;15.60;99.90
17813;DHT22;9030;50.792;8.320;2024-03-22T14:07:13;15.50;99.90
17813;DHT22;9030;50.792;8.320;2024-03-22T14:09:40;15.50;99.90
17813;DHT22;9030;50.792;8.320;2024-03-22T14:12:06;15.50;99.90
17813;DHT22;9030;50.792;8.320;2024-03-22T14:14:33;15.60;99.90
17813;DHT22;9030;50.792;8.320;2024-03-22T14:16:59;15.50;99.90
17813;DHT22;9030;50.792;8.320;2024-03-22T14:19:26;15.50;99.90
17813;DHT22;9030;50.792;8.320;2024-03-22T14:21:53;15.60;99.90
17813;DHT22;9030;50.792;8.320;2024-03-22T14:24:19;15.60;99.90
17813;DHT22;9030;50.792;8.320;2024-03-22T14:26:45;15.50;99.90
17813;DHT22;9030;50.792;8.320;2024-03-22T14:29:12;15.40;99.90
17813;DHT22;9030;50.792;8.320;2024-03-22T14:31:38;15.30;99.90
17813;DHT22;9030;50.792;8.320;2024-03-22T14:34:06;15.30;99.90
17813;DHT22;9030;50.792;8.320;2024-03-22T14:36:32;15.30;99.90
17813;DHT22;9030;50.792;8.320;2024-03-22T14:39:00;15.40;99.90
17813;DHT22;9030;50.792;8.320;2024-03-22T14:41:28;15.70;99.90
17813;DHT22;9030;50.792;8.320;2024-03-22T14:43:54;15.80;99.90
17813;DHT22;9030;50.792;8.320;2024-03-22T14:46:20;15.90;99.90
17813;DHT22;9030;50.792;8.320;2024-03-22T14:48:50;16.00;99.90
17813;DHT22;9030;50.792;8.320;2024-03-22T14:51:15;16.00;99.90
17813;DHT22;9030;50.792;8.320;2024-03-22T14:53:42;15.90;99.90
17813;DHT22;9030;50.792;8.320;2024-03-22T14:56:09;15.90;99.90
17813;DHT22;9030;50.792;8.320;2024-03-22T14:58:38;15.80;99.90
17813;DHT22;9030;50.792;8.320;2024-03-22T15:01:04;15.90;99.90
17813;DHT22;9030;50.792;8.320;2024-03-22T15:03:31;16.00;99.90
17813;DHT22;9030;50.792;8.320;2024-03-22T15:05:58;16.00;99.90
17813;DHT22;9030;50.792;8.320;2024-03-22T15:08:26;16.00;99.90
17813;DHT22;9030;50.792;8.320;2024-03-22T15:10:52;16.00;99.90
17813;DHT22;9030;50.792;8.320;2024-03-22T15:13:20;15.80;99.90
17813;DHT22;9030;50.792;8.320;2024-03-22T15:15:53;15.70;99.90
17813;DHT22;9030;50.792;8.320;2024-03-22T15:18:20;15.50;99.90
17813;DHT22;9030;50.792;8.320;2024-03-22T15:20:46;15.40;99.90
17813;DHT22;9030;50.792;8.320;2024-03-22T15:23:13;15.40;99.90
17813;DHT22;9030;50.792;8.320;2024-03-22T15:25:39;15.50;99.90
17813;DHT22;9030;50.792;8.320;2024-03-22T15:28:06;15.50;99.90
17813;DHT22;9030;50.792;8.320;2024-03-22T15:30:33;15.50;99.90
17813;DHT22;9030;50.792;8.320;2024-03-22T15:33:00;15.50;99.90
17813;DHT22;9030;50.792;8.320;2024-03-22T15:35:26;15.50;99.90
17813;DHT22;9030;50.792;8.320;2024-03-22T15:37:52;15.50;99.90
17813;DHT22;9030;50.792;8.320;2024-03-22T15:40:18;15.50;99.90
17813;DHT22;9030;50.792;8.320;2024-03-22T15:42:45;15.60;99.90
17813;DHT22;9030;50.792;8.320;2024-03-22T15:45:11;15.60;99.90
17813;DHT22;9030;50.792;8.320;2024-03-22T15:47:39;15.50;99.90
17813;DHT22;9030;50.792;8.320;2024-03-22T15:50:06;15.60;99.90